Aviation Digital Data Service (ADDS)

Output produced by METARs form (2245 UTC 28 November 2014)
found at http://www.aviationweather.gov/adds/metars/
 
KDFW 282105Z 2821/2924 19019KT P6SM SKC 
     FM291200 18014KT P6SM SCT012 
     FM291800 20021KT P6SM FEW030